createdAt,value
2022-09-26T00:00:54.634Z,1013.93
2022-09-26T00:01:54.704Z,1013.94
2022-09-26T00:02:54.590Z,1013.91
2022-09-26T00:03:54.558Z,1013.90
2022-09-26T00:04:54.517Z,1013.94
2022-09-26T00:05:54.548Z,1013.97
2022-09-26T00:06:54.498Z,1013.97
2022-09-26T00:07:54.480Z,1013.99
2022-09-26T00:08:54.507Z,1013.96
2022-09-26T00:09:54.526Z,1013.98
2022-09-26T00:10:54.436Z,1014.00
2022-09-26T00:11:54.424Z,1013.99
2022-09-26T00:12:54.449Z,1013.99
2022-09-26T00:13:54.400Z,1013.94
2022-09-26T00:14:54.393Z,1013.96
2022-09-26T00:15:54.410Z,1013.95
2022-09-26T00:16:54.463Z,1013.91
2022-09-26T00:17:54.477Z,1013.98
2022-09-26T00:18:54.392Z,1013.95
2022-09-26T00:19:54.393Z,1013.94
2022-09-26T00:20:54.343Z,1013.92
2022-09-26T00:21:54.354Z,1013.89
2022-09-26T00:22:54.303Z,1013.88
2022-09-26T00:23:54.274Z,1013.86
2022-09-26T00:24:54.273Z,1013.88
2022-09-26T00:25:54.397Z,1013.88
2022-09-26T00:26:54.295Z,1013.90
2022-09-26T00:27:54.306Z,1013.87
2022-09-26T00:28:54.223Z,1013.93
2022-09-26T00:29:54.221Z,1013.90
2022-09-26T00:30:54.309Z,1013.88
2022-09-26T00:31:54.163Z,1013.92
2022-09-26T00:32:54.191Z,1013.86
2022-09-26T00:33:54.170Z,1013.85
2022-09-26T00:34:54.134Z,1013.83
2022-09-26T00:35:54.131Z,1013.81
2022-09-26T00:36:54.118Z,1013.80
2022-09-26T00:37:54.076Z,1013.82
2022-09-26T00:38:54.118Z,1013.78
2022-09-26T00:39:54.092Z,1013.79
2022-09-26T00:40:54.135Z,1013.79
2022-09-26T00:41:54.028Z,1013.74
2022-09-26T00:42:54.038Z,1013.71
2022-09-26T00:43:54.011Z,1013.72
2022-09-26T00:44:53.985Z,1013.69
2022-09-26T00:45:54.099Z,1013.70
2022-09-26T00:46:53.975Z,1013.65
2022-09-26T00:47:53.985Z,1013.64
2022-09-26T00:48:53.958Z,1013.63
2022-09-26T00:49:53.935Z,1013.63
2022-09-26T00:50:53.936Z,1013.55
2022-09-26T00:51:53.957Z,1013.58
2022-09-26T00:52:53.974Z,1013.54
2022-09-26T00:53:53.927Z,1013.53
2022-09-26T00:54:53.925Z,1013.49
2022-09-26T00:55:53.878Z,1013.46
2022-09-26T00:56:53.831Z,1013.46
2022-09-26T00:57:53.867Z,1013.45
2022-09-26T00:58:53.815Z,1013.45
2022-09-26T00:59:53.807Z,1013.49
2022-09-26T01:00:53.869Z,1013.51
2022-09-26T01:01:53.957Z,1013.46
2022-09-26T01:02:53.754Z,1013.50
2022-09-26T01:03:53.838Z,1013.45
2022-09-26T01:04:53.735Z,1013.46
2022-09-26T01:05:53.734Z,1013.44
2022-09-26T01:06:53.726Z,1013.41
2022-09-26T01:07:53.709Z,1013.39
2022-09-26T01:08:53.695Z,1013.36
2022-09-26T01:09:53.735Z,1013.38
2022-09-26T01:10:53.661Z,1013.33
2022-09-26T01:11:53.673Z,1013.37
2022-09-26T01:12:53.626Z,1013.34
2022-09-26T01:13:53.646Z,1013.35
2022-09-26T01:14:53.631Z,1013.35
2022-09-26T01:15:53.642Z,1013.29
2022-09-26T01:16:53.690Z,1013.27
2022-09-26T01:17:53.626Z,1013.29
2022-09-26T01:18:53.549Z,1013.27
2022-09-26T01:19:53.546Z,1013.24
2022-09-26T01:20:54.123Z,1013.18
2022-09-26T01:21:53.608Z,1013.17
2022-09-26T01:22:53.494Z,1013.19
2022-09-26T01:23:53.502Z,1013.16
2022-09-26T01:24:53.499Z,1013.18
2022-09-26T01:25:53.638Z,1013.17
2022-09-26T01:26:53.453Z,1013.21
2022-09-26T01:27:53.531Z,1013.13
2022-09-26T01:28:53.451Z,1013.13
2022-09-26T01:29:53.515Z,1013.13
2022-09-26T01:30:53.490Z,1013.18
2022-09-26T01:31:53.408Z,1013.16
2022-09-26T01:32:53.366Z,1013.16
2022-09-26T01:33:53.435Z,1013.13
2022-09-26T01:34:53.337Z,1013.07
2022-09-26T01:35:53.343Z,1013.12
2022-09-26T01:36:53.363Z,1013.10
2022-09-26T01:37:53.381Z,1013.08
2022-09-26T01:38:53.325Z,1013.12
2022-09-26T01:39:53.337Z,1013.12
2022-09-26T01:40:53.352Z,1013.09
2022-09-26T01:41:53.292Z,1013.10
2022-09-26T01:42:53.277Z,1013.11
2022-09-26T01:43:53.278Z,1013.07
2022-09-26T01:44:53.242Z,1013.07
2022-09-26T01:45:53.281Z,1013.08
2022-09-26T01:46:53.246Z,1013.07
2022-09-26T01:47:53.191Z,1013.04
2022-09-26T01:48:53.167Z,1013.02
2022-09-26T01:49:53.176Z,1012.98
2022-09-26T01:50:53.313Z,1012.97
2022-09-26T01:51:53.221Z,1012.95
2022-09-26T01:52:53.150Z,1012.96
2022-09-26T01:53:53.116Z,1012.92
2022-09-26T01:54:53.159Z,1012.92
2022-09-26T01:55:53.081Z,1012.89
2022-09-26T01:56:53.074Z,1012.91
2022-09-26T01:57:53.104Z,1012.89
2022-09-26T01:58:53.146Z,1012.88
2022-09-26T01:59:53.048Z,1012.86
2022-09-26T02:00:53.081Z,1012.87
2022-09-26T02:01:53.076Z,1012.82
2022-09-26T02:02:53.084Z,1012.80
2022-09-26T02:03:53.026Z,1012.85
2022-09-26T02:04:52.959Z,1012.86
2022-09-26T02:05:52.959Z,1012.88
2022-09-26T02:06:52.935Z,1012.85
2022-09-26T02:07:52.944Z,1012.84
2022-09-26T02:08:52.922Z,1012.83
2022-09-26T02:09:52.959Z,1012.82
2022-09-26T02:10:52.915Z,1012.75
2022-09-26T02:12:45.149Z,1012.78
2022-09-26T02:13:46.120Z,1012.72
2022-09-26T02:14:46.144Z,1012.77
2022-09-26T02:15:46.126Z,1012.75
2022-09-26T02:16:46.236Z,1012.71
2022-09-26T02:17:46.078Z,1012.70
2022-09-26T02:18:46.103Z,1012.69
2022-09-26T02:19:46.045Z,1012.67
2022-09-26T02:20:46.045Z,1012.64
2022-09-26T02:21:46.049Z,1012.67
2022-09-26T02:22:46.058Z,1012.61
2022-09-26T02:23:45.984Z,1012.59
2022-09-26T02:24:46.011Z,1012.54
2022-09-26T02:25:45.998Z,1012.55
2022-09-26T02:26:45.959Z,1012.50
2022-09-26T02:27:46.026Z,1012.51
2022-09-26T02:28:46.621Z,1012.47
2022-09-26T02:29:45.938Z,1012.50
2022-09-26T02:30:45.933Z,1012.47
2022-09-26T02:31:45.981Z,1012.44
2022-09-26T02:32:45.919Z,1012.43
2022-09-26T02:33:45.890Z,1012.42
2022-09-26T02:34:45.910Z,1012.41
2022-09-26T02:35:45.862Z,1012.41
2022-09-26T02:36:45.835Z,1012.38
2022-09-26T02:37:45.798Z,1012.35
2022-09-26T02:38:45.888Z,1012.36
2022-09-26T02:39:45.814Z,1012.38
2022-09-26T02:40:45.843Z,1012.34
2022-09-26T02:41:45.754Z,1012.31
2022-09-26T02:42:45.773Z,1012.33
2022-09-26T02:43:45.731Z,1012.35
2022-09-26T02:44:45.733Z,1012.38
2022-09-26T02:45:45.787Z,1012.37
2022-09-26T02:46:45.706Z,1012.31
2022-09-26T02:47:45.679Z,1012.34
2022-09-26T02:48:45.681Z,1012.34
2022-09-26T02:49:45.659Z,1012.28
2022-09-26T02:50:45.653Z,1012.26
2022-09-26T02:51:45.681Z,1012.25
2022-09-26T02:52:45.620Z,1012.24
2022-09-26T02:53:45.604Z,1012.21
2022-09-26T02:54:45.640Z,1012.22
2022-09-26T02:55:45.596Z,1012.20
2022-09-26T02:56:45.579Z,1012.20
2022-09-26T02:57:45.613Z,1012.16
2022-09-26T02:58:45.578Z,1012.16
2022-09-26T02:59:45.520Z,1012.11
2022-09-26T03:00:45.595Z,1012.14
2022-09-26T03:01:45.647Z,1012.13
2022-09-26T03:02:45.535Z,1012.07
2022-09-26T03:03:45.550Z,1012.06
2022-09-26T03:04:45.559Z,1012.07
2022-09-26T03:05:45.473Z,1012.06
2022-09-26T03:06:45.459Z,1012.06
2022-09-26T03:07:45.504Z,1012.04
2022-09-26T03:08:45.430Z,1012.00
2022-09-26T03:09:45.500Z,1012.00
2022-09-26T03:10:45.381Z,1012.01
2022-09-26T03:11:45.375Z,1012.02
2022-09-26T03:12:45.367Z,1012.00
2022-09-26T03:13:45.365Z,1011.97
2022-09-26T03:14:45.342Z,1011.99
2022-09-26T03:15:45.346Z,1012.01
2022-09-26T03:16:45.373Z,1012.06
2022-09-26T03:17:45.279Z,1012.06
2022-09-26T03:18:45.299Z,1012.04
2022-09-26T03:19:45.251Z,1012.05
2022-09-26T03:20:45.270Z,1012.06
2022-09-26T03:21:45.259Z,1012.06
2022-09-26T03:22:45.231Z,1012.02
2022-09-26T03:23:45.235Z,1011.98
2022-09-26T03:24:45.228Z,1011.91
2022-09-26T03:25:45.222Z,1011.93
2022-09-26T03:26:45.203Z,1011.89
2022-09-26T03:27:45.212Z,1011.82
2022-09-26T03:28:45.146Z,1011.87
2022-09-26T03:29:45.188Z,1011.84
2022-09-26T03:30:45.135Z,1011.88
2022-09-26T03:31:45.205Z,1011.82
2022-09-26T03:32:45.132Z,1011.83
2022-09-26T03:33:45.116Z,1011.79
2022-09-26T03:34:45.087Z,1011.82
2022-09-26T03:35:45.168Z,1011.76
2022-09-26T03:36:45.055Z,1011.76
2022-09-26T03:37:45.044Z,1011.75
2022-09-26T03:38:45.023Z,1011.73
2022-09-26T03:39:45.082Z,1011.73
2022-09-26T03:40:45.054Z,1011.68
2022-09-26T03:41:44.959Z,1011.67
2022-09-26T03:42:45.033Z,1011.65
2022-09-26T03:43:44.961Z,1011.66
2022-09-26T03:44:44.947Z,1011.68
2022-09-26T03:45:44.958Z,1011.63
2022-09-26T03:46:44.985Z,1011.69
2022-09-26T03:47:44.907Z,1011.66
2022-09-26T03:48:44.882Z,1011.66
2022-09-26T03:49:44.878Z,1011.63
2022-09-26T03:50:44.882Z,1011.59
2022-09-26T03:51:44.860Z,1011.56
2022-09-26T03:52:44.854Z,1011.55
2022-09-26T03:53:44.841Z,1011.58
2022-09-26T03:54:44.814Z,1011.52
2022-09-26T03:55:44.830Z,1011.52
2022-09-26T03:56:44.776Z,1011.49
2022-09-26T03:57:44.807Z,1011.46
2022-09-26T03:58:44.777Z,1011.43
2022-09-26T03:59:44.743Z,1011.55
2022-09-26T04:00:44.769Z,1011.47
2022-09-26T04:01:44.796Z,1011.44
2022-09-26T04:02:44.801Z,1011.41
2022-09-26T04:03:49.992Z,1011.40
2022-09-26T04:04:44.719Z,1011.30
2022-09-26T04:05:44.668Z,1011.32
2022-09-26T04:06:44.651Z,1011.29
2022-09-26T04:07:44.812Z,1011.28
2022-09-26T04:08:44.901Z,1011.28
2022-09-26T04:09:44.681Z,1011.28
2022-09-26T04:10:44.623Z,1011.27
2022-09-26T04:11:44.587Z,1011.30
2022-09-26T04:12:44.580Z,1011.25
2022-09-26T04:13:51.975Z,1011.30
2022-09-26T04:14:44.571Z,1011.28
2022-09-26T04:15:44.562Z,1011.27
2022-09-26T04:16:44.562Z,1011.23
2022-09-26T04:17:44.500Z,1011.25
2022-09-26T04:18:44.528Z,1011.23
2022-09-26T04:19:44.495Z,1011.17
2022-09-26T04:20:44.478Z,1011.17
2022-09-26T04:21:44.740Z,1011.22
2022-09-26T04:22:44.465Z,1011.20
2022-09-26T04:23:44.425Z,1011.14
2022-09-26T04:24:44.439Z,1011.13
2022-09-26T04:25:44.410Z,1011.10
2022-09-26T04:26:44.394Z,1011.10
2022-09-26T04:27:44.468Z,1011.09
2022-09-26T04:28:44.414Z,1011.09
2022-09-26T04:29:44.424Z,1011.03
2022-09-26T04:30:44.327Z,1011.00
2022-09-26T04:31:44.360Z,1011.00
2022-09-26T04:32:44.317Z,1010.99
2022-09-26T04:33:44.324Z,1010.98
2022-09-26T04:34:44.376Z,1010.99
2022-09-26T04:35:44.261Z,1010.98
2022-09-26T04:36:44.252Z,1011.05
2022-09-26T04:37:44.223Z,1010.98
2022-09-26T04:38:44.253Z,1010.95
2022-09-26T04:39:44.242Z,1010.90
2022-09-26T04:40:44.274Z,1010.94
2022-09-26T04:41:44.213Z,1010.96
2022-09-26T04:42:44.193Z,1010.93
2022-09-26T04:43:44.159Z,1010.89
2022-09-26T04:44:44.162Z,1010.87
2022-09-26T04:45:44.215Z,1010.90
2022-09-26T04:46:44.138Z,1010.91
2022-09-26T04:47:44.167Z,1010.88
2022-09-26T04:48:44.107Z,1010.86
2022-09-26T04:49:44.117Z,1010.91
2022-09-26T04:50:44.074Z,1010.85
2022-09-26T04:51:44.047Z,1010.85
2022-09-26T04:52:44.008Z,1010.83
2022-09-26T04:53:44.088Z,1010.83
2022-09-26T04:54:43.971Z,1010.82
2022-09-26T04:55:43.951Z,1010.77
2022-09-26T04:56:43.976Z,1010.77
2022-09-26T04:57:43.961Z,1010.75
2022-09-26T04:58:44.015Z,1010.70
2022-09-26T04:59:43.967Z,1010.77
2022-09-26T05:00:43.944Z,1010.72
2022-09-26T05:01:43.922Z,1010.72
2022-09-26T05:02:43.957Z,1010.73
2022-09-26T05:03:43.877Z,1010.75
2022-09-26T05:04:43.861Z,1010.73
2022-09-26T05:05:43.838Z,1010.65
2022-09-26T05:06:43.829Z,1010.65
2022-09-26T05:07:43.826Z,1010.65
2022-09-26T05:08:43.786Z,1010.67
2022-09-26T05:09:43.850Z,1010.67
2022-09-26T05:10:43.753Z,1010.64
2022-09-26T05:11:43.732Z,1010.64
2022-09-26T05:12:43.730Z,1010.63
2022-09-26T05:13:43.759Z,1010.60
2022-09-26T05:14:43.715Z,1010.55
2022-09-26T05:15:43.701Z,1010.56
2022-09-26T05:16:43.809Z,1010.56
2022-09-26T05:17:43.652Z,1010.57
2022-09-26T05:18:43.651Z,1010.56
2022-09-26T05:19:43.706Z,1010.55
2022-09-26T05:20:43.658Z,1010.60
2022-09-26T05:21:43.678Z,1010.58
2022-09-26T05:22:43.613Z,1010.58
2022-09-26T05:23:45.060Z,1010.57
2022-09-26T05:24:43.586Z,1010.54
2022-09-26T05:25:43.545Z,1010.50
2022-09-26T05:26:43.575Z,1010.52
2022-09-26T05:27:43.559Z,1010.50
2022-09-26T05:28:43.566Z,1010.48
2022-09-26T05:29:43.503Z,1010.41
2022-09-26T05:30:43.582Z,1010.42
2022-09-26T05:31:43.619Z,1010.40
2022-09-26T05:32:43.460Z,1010.38
2022-09-26T05:33:43.509Z,1010.39
2022-09-26T05:34:43.444Z,1010.42
2022-09-26T05:35:43.465Z,1010.38
2022-09-26T05:36:43.457Z,1010.37
2022-09-26T05:37:43.417Z,1010.35
2022-09-26T05:38:43.398Z,1010.43
2022-09-26T05:39:43.724Z,1010.38
2022-09-26T05:40:43.386Z,1010.39
2022-09-26T05:41:43.361Z,1010.41
2022-09-26T05:42:43.354Z,1010.32
2022-09-26T05:43:43.326Z,1010.34
2022-09-26T05:44:43.357Z,1010.34
2022-09-26T05:45:43.350Z,1010.37
2022-09-26T05:46:43.347Z,1010.34
2022-09-26T05:47:43.277Z,1010.35
2022-09-26T05:48:43.354Z,1010.37
2022-09-26T05:49:43.248Z,1010.31
2022-09-26T05:50:43.779Z,1010.34
2022-09-26T05:51:43.253Z,1010.34
2022-09-26T05:52:43.208Z,1010.34
2022-09-26T05:53:43.224Z,1010.34
2022-09-26T05:54:43.225Z,1010.35
2022-09-26T05:55:43.210Z,1010.31
2022-09-26T05:56:43.175Z,1010.32
2022-09-26T05:57:43.287Z,1010.32
2022-09-26T05:58:43.120Z,1010.28
2022-09-26T05:59:43.363Z,1010.29
2022-09-26T06:00:43.134Z,1010.28
2022-09-26T06:01:43.173Z,1010.25
2022-09-26T06:02:43.127Z,1010.17
2022-09-26T06:03:43.127Z,1010.18
2022-09-26T06:04:43.031Z,1010.21
2022-09-26T06:05:43.096Z,1010.21
2022-09-26T06:06:43.013Z,1010.20
2022-09-26T06:07:43.041Z,1010.17
2022-09-26T06:08:42.999Z,1010.14
2022-09-26T06:09:43.046Z,1010.14
2022-09-26T06:10:42.951Z,1010.14
2022-09-26T06:11:42.951Z,1010.15
2022-09-26T06:12:44.662Z,1010.09
2022-09-26T06:13:42.939Z,1010.12
2022-09-26T06:14:42.901Z,1010.08
2022-09-26T06:15:42.980Z,1010.02
2022-09-26T06:16:42.936Z,1010.04
2022-09-26T06:17:42.878Z,1010.02
2022-09-26T06:18:42.847Z,1010.02
2022-09-26T06:19:42.879Z,1010.04
2022-09-26T06:20:42.894Z,1010.03
2022-09-26T06:21:43.020Z,1010.02
2022-09-26T06:22:42.834Z,1009.97
2022-09-26T06:23:42.834Z,1010.00
2022-09-26T06:24:42.812Z,1010.01
2022-09-26T06:25:42.766Z,1009.99
2022-09-26T06:26:42.765Z,1009.98
2022-09-26T06:27:42.791Z,1009.92
2022-09-26T06:28:42.757Z,1009.90
2022-09-26T06:29:42.735Z,1009.92
2022-09-26T06:30:42.697Z,1009.89
2022-09-26T06:31:42.825Z,1009.79
2022-09-26T06:32:42.727Z,1009.80
2022-09-26T06:33:42.701Z,1009.82
2022-09-26T06:34:42.728Z,1009.87
2022-09-26T06:35:42.645Z,1009.87
2022-09-26T06:36:42.616Z,1009.90
2022-09-26T06:37:42.668Z,1009.88
2022-09-26T06:38:42.591Z,1009.87
2022-09-26T06:39:42.680Z,1009.88
2022-09-26T06:40:42.655Z,1009.82
2022-09-26T06:41:42.570Z,1009.88
2022-09-26T06:42:42.540Z,1009.85
2022-09-26T06:43:42.552Z,1009.86
2022-09-26T06:44:42.519Z,1009.79
2022-09-26T06:45:42.554Z,1009.77
2022-09-26T06:46:42.525Z,1009.77
2022-09-26T06:47:42.483Z,1009.83
2022-09-26T06:48:42.464Z,1009.80
2022-09-26T06:49:42.482Z,1009.82
2022-09-26T06:50:42.437Z,1009.80
2022-09-26T06:51:42.476Z,1009.82
2022-09-26T06:52:42.402Z,1009.77
2022-09-26T06:53:42.412Z,1009.84
2022-09-26T06:54:42.419Z,1009.77
2022-09-26T06:55:42.456Z,1009.83
2022-09-26T06:56:42.365Z,1009.77
2022-09-26T06:57:42.461Z,1009.80
2022-09-26T06:58:42.334Z,1009.79
2022-09-26T06:59:42.339Z,1009.80
2022-09-26T07:00:42.421Z,1009.74
2022-09-26T07:01:42.533Z,1009.81
2022-09-26T07:02:42.300Z,1009.81
2022-09-26T07:03:45.589Z,1009.83
2022-09-26T07:04:42.295Z,1009.78
2022-09-26T07:05:42.338Z,1009.77
2022-09-26T07:06:42.212Z,1009.76
2022-09-26T07:07:42.254Z,1009.73
2022-09-26T07:09:42.246Z,1009.66
2022-09-26T07:10:42.172Z,1009.70
2022-09-26T07:12:09.957Z,1009.61
2022-09-26T07:12:42.181Z,1009.65
2022-09-26T07:13:42.158Z,1009.67
2022-09-26T07:14:42.133Z,1009.67
2022-09-26T07:15:42.286Z,1009.66
2022-09-26T07:16:42.177Z,1009.68
2022-09-26T07:17:42.098Z,1009.67
2022-09-26T07:18:42.066Z,1009.69
2022-09-26T07:19:42.067Z,1009.59
2022-09-26T07:20:42.030Z,1009.62
2022-09-26T07:21:42.102Z,1009.59
2022-09-26T07:22:42.008Z,1009.59
2022-09-26T07:23:42.017Z,1009.56
2022-09-26T07:24:42.019Z,1009.57
2022-09-26T07:25:41.996Z,1009.59
2022-09-26T07:26:41.979Z,1009.58
2022-09-26T07:27:41.987Z,1009.59
2022-09-26T07:28:41.967Z,1009.60
2022-09-26T07:29:41.931Z,1009.52
2022-09-26T07:30:41.907Z,1009.53
2022-09-26T07:31:42.010Z,1009.48
2022-09-26T07:32:41.996Z,1009.50
2022-09-26T07:33:41.905Z,1009.54
2022-09-26T07:34:41.848Z,1009.53
2022-09-26T07:35:41.850Z,1009.50
2022-09-26T07:36:41.823Z,1009.52
2022-09-26T07:37:41.849Z,1009.49
2022-09-26T07:38:41.797Z,1009.42
2022-09-26T07:39:41.985Z,1009.50
2022-09-26T07:40:41.864Z,1009.38
2022-09-26T07:41:41.766Z,1009.38
2022-09-26T07:42:41.743Z,1009.43
2022-09-26T07:44:30.336Z,1009.38
2022-09-26T07:45:24.873Z,1009.36
2022-09-26T07:45:41.762Z,1009.39
2022-09-26T07:46:41.762Z,1009.34
2022-09-26T07:47:41.774Z,1009.35
2022-09-26T07:48:41.685Z,1009.31
2022-09-26T07:49:41.695Z,1009.30
2022-09-26T07:50:41.663Z,1009.29
2022-09-26T07:51:41.633Z,1009.26
2022-09-26T07:52:41.607Z,1009.31
2022-09-26T07:53:41.636Z,1009.33
2022-09-26T07:54:41.574Z,1009.27
2022-09-26T07:55:41.583Z,1009.32
2022-09-26T07:56:41.590Z,1009.28
2022-09-26T07:57:41.550Z,1009.31
2022-09-26T07:58:41.537Z,1009.31
2022-09-26T07:59:41.603Z,1009.33
2022-09-26T08:00:41.500Z,1009.32
2022-09-26T08:01:41.556Z,1009.39
2022-09-26T08:02:41.535Z,1009.30
2022-09-26T08:03:41.667Z,1009.39
2022-09-26T08:04:41.472Z,1009.38
2022-09-26T08:05:41.480Z,1009.33
2022-09-26T08:06:41.431Z,1009.32
2022-09-26T08:07:42.281Z,1009.35
2022-09-26T08:08:41.437Z,1009.38
2022-09-26T08:09:41.443Z,1009.36
2022-09-26T08:10:41.407Z,1009.32
2022-09-26T08:11:41.379Z,1009.35
2022-09-26T08:12:41.342Z,1009.30
2022-09-26T08:13:41.342Z,1009.29
2022-09-26T08:14:41.388Z,1009.20
2022-09-26T08:15:41.397Z,1009.20
2022-09-26T08:16:41.339Z,1009.15
2022-09-26T08:17:41.306Z,1009.12
2022-09-26T08:18:41.283Z,1009.14
2022-09-26T08:19:41.258Z,1009.13
2022-09-26T08:20:41.314Z,1009.13
2022-09-26T08:21:41.239Z,1009.12
2022-09-26T08:22:41.227Z,1009.13
2022-09-26T08:23:41.211Z,1009.09
2022-09-26T08:24:41.222Z,1009.11
2022-09-26T08:25:41.199Z,1009.09
2022-09-26T08:26:44.386Z,1009.07
2022-09-26T08:27:41.164Z,1009.07
2022-09-26T08:28:41.272Z,1009.08
2022-09-26T08:29:41.140Z,1009.09
2022-09-26T08:30:41.111Z,1009.10
2022-09-26T08:31:41.247Z,1009.05
2022-09-26T08:32:41.105Z,1009.06
2022-09-26T08:33:41.077Z,1008.99
2022-09-26T08:34:41.050Z,1009.00
2022-09-26T08:35:41.057Z,1009.02
2022-09-26T08:36:41.069Z,1009.07
2022-09-26T08:37:41.025Z,1009.02
2022-09-26T08:38:41.051Z,1008.97
2022-09-26T08:39:41.015Z,1008.95
2022-09-26T08:40:41.054Z,1008.93
2022-09-26T08:41:40.969Z,1008.94
2022-09-26T08:42:40.971Z,1008.92
2022-09-26T08:43:40.955Z,1008.89
2022-09-26T08:44:40.944Z,1008.89
2022-09-26T08:45:44.104Z,1008.92
2022-09-26T08:46:40.924Z,1008.92
2022-09-26T08:47:40.924Z,1008.89
2022-09-26T08:48:40.921Z,1008.91
2022-09-26T08:49:40.972Z,1008.90
2022-09-26T08:50:40.921Z,1008.84
2022-09-26T08:51:40.958Z,1008.85
2022-09-26T08:52:40.827Z,1008.87
2022-09-26T08:53:40.955Z,1008.82
2022-09-26T08:54:40.851Z,1008.91
2022-09-26T08:55:40.781Z,1008.89
2022-09-26T08:56:40.803Z,1008.90
2022-09-26T08:57:40.761Z,1008.91
2022-09-26T08:58:40.757Z,1008.86
2022-09-26T08:59:40.750Z,1008.88
2022-09-26T09:00:40.702Z,1008.83
2022-09-26T09:01:40.818Z,1008.84
2022-09-26T09:02:40.856Z,1008.77
2022-09-26T09:03:40.682Z,1008.87
2022-09-26T09:04:40.652Z,1008.83
2022-09-26T09:05:40.705Z,1008.81
2022-09-26T09:06:40.628Z,1008.78
2022-09-26T09:07:40.660Z,1008.78
2022-09-26T09:08:40.650Z,1008.73
2022-09-26T09:09:40.627Z,1008.76
2022-09-26T09:10:40.581Z,1008.77
2022-09-26T09:11:40.573Z,1008.71
2022-09-26T09:12:40.775Z,1008.77
2022-09-26T09:13:40.632Z,1008.74
2022-09-26T09:14:40.568Z,1008.74
2022-09-26T09:15:40.624Z,1008.73
2022-09-26T09:16:40.508Z,1008.74
2022-09-26T09:17:40.540Z,1008.62
2022-09-26T09:18:40.510Z,1008.60
2022-09-26T09:19:40.612Z,1008.62
2022-09-26T09:20:40.524Z,1008.62
2022-09-26T09:21:42.033Z,1008.56
2022-09-26T09:22:40.466Z,1008.55
2022-09-26T09:23:40.469Z,1008.49
2022-09-26T09:24:40.441Z,1008.51
2022-09-26T09:25:40.405Z,1008.49
2022-09-26T09:27:59.330Z,1008.56
2022-09-26T09:28:40.364Z,1008.53
2022-09-26T09:29:40.347Z,1008.51
2022-09-26T09:30:40.330Z,1008.55
2022-09-26T09:31:40.354Z,1008.48
2022-09-26T09:32:40.343Z,1008.49
2022-09-26T09:33:40.274Z,1008.50
2022-09-26T09:34:40.266Z,1008.52
2022-09-26T09:35:40.259Z,1008.43
2022-09-26T09:36:40.223Z,1008.47
2022-09-26T09:37:40.225Z,1008.47
2022-09-26T09:38:40.240Z,1008.43
2022-09-26T09:39:40.206Z,1008.41
2022-09-26T09:40:40.271Z,1008.48
2022-09-26T09:41:40.316Z,1008.45
2022-09-26T09:42:40.148Z,1008.41
2022-09-26T09:43:40.178Z,1008.37
2022-09-26T09:44:45.624Z,1008.36
2022-09-26T09:45:40.184Z,1008.39
2022-09-26T09:46:40.134Z,1008.32
2022-09-26T09:47:40.187Z,1008.35
2022-09-26T09:48:40.074Z,1008.26
2022-09-26T09:49:40.037Z,1008.27
2022-09-26T09:50:40.092Z,1008.18
2022-09-26T09:51:40.033Z,1008.21
2022-09-26T09:52:40.019Z,1008.17
2022-09-26T09:53:40.006Z,1008.17
2022-09-26T09:54:40.015Z,1008.16
2022-09-26T09:55:39.966Z,1008.12
2022-09-26T09:56:40.009Z,1008.09
2022-09-26T09:57:39.953Z,1008.02
2022-09-26T09:58:39.958Z,1008.05
2022-09-26T09:59:39.906Z,1008.00
2022-09-26T10:00:39.904Z,1007.93
2022-09-26T10:01:39.985Z,1007.96
2022-09-26T10:02:39.997Z,1007.99
2022-09-26T10:03:39.916Z,1007.93
2022-09-26T10:04:40.073Z,1007.91
2022-09-26T10:05:39.875Z,1007.93
2022-09-26T10:06:45.747Z,1007.92
2022-09-26T10:07:39.820Z,1007.90
2022-09-26T10:08:39.836Z,1007.88
2022-09-26T10:09:40.891Z,1007.89
2022-09-26T10:10:39.782Z,1007.91
2022-09-26T10:11:39.996Z,1007.88
2022-09-26T10:12:39.781Z,1007.90
2022-09-26T10:13:39.790Z,1007.87
2022-09-26T10:14:39.753Z,1007.84
2022-09-26T10:15:39.747Z,1007.85
2022-09-26T10:16:39.698Z,1007.92
2022-09-26T10:17:39.683Z,1007.77
2022-09-26T10:18:39.685Z,1007.78
2022-09-26T10:19:39.645Z,1007.77
2022-09-26T10:20:39.672Z,1007.83
2022-09-26T10:21:39.721Z,1007.82
2022-09-26T10:22:39.639Z,1007.80
2022-09-26T10:23:39.603Z,1007.83
2022-09-26T10:24:39.707Z,1007.87
2022-09-26T10:25:39.568Z,1007.86
2022-09-26T10:26:39.690Z,1007.88
2022-09-26T10:27:39.554Z,1007.83
2022-09-26T10:28:39.566Z,1007.77
2022-09-26T10:29:39.512Z,1007.73
2022-09-26T10:30:39.537Z,1007.75
2022-09-26T10:31:42.593Z,1007.72
2022-09-26T10:32:39.527Z,1007.76
2022-09-26T10:33:39.474Z,1007.72
2022-09-26T10:34:39.488Z,1007.76
2022-09-26T10:35:39.428Z,1007.69
2022-09-26T10:36:39.427Z,1007.73
2022-09-26T10:37:39.421Z,1007.72
2022-09-26T10:38:39.470Z,1007.74
2022-09-26T10:39:39.420Z,1007.67
2022-09-26T10:40:39.442Z,1007.70
2022-09-26T10:41:39.444Z,1007.62
2022-09-26T10:42:39.352Z,1007.60
2022-09-26T10:43:39.350Z,1007.67
2022-09-26T10:44:39.377Z,1007.66
2022-09-26T10:45:39.358Z,1007.61
2022-09-26T10:46:39.366Z,1007.62
2022-09-26T10:47:39.282Z,1007.61
2022-09-26T10:48:39.305Z,1007.64
2022-09-26T10:49:39.264Z,1007.64
2022-09-26T10:50:39.297Z,1007.60
2022-09-26T10:51:39.279Z,1007.65
2022-09-26T10:52:39.223Z,1007.60
2022-09-26T10:53:39.237Z,1007.61
2022-09-26T10:54:39.210Z,1007.59
2022-09-26T10:55:39.200Z,1007.57
2022-09-26T10:56:39.222Z,1007.61
2022-09-26T10:57:39.146Z,1007.62
2022-09-26T10:58:39.163Z,1007.65
2022-09-26T10:59:39.165Z,1007.59
2022-09-26T11:00:39.131Z,1007.58
2022-09-26T11:01:39.136Z,1007.59
2022-09-26T11:02:39.139Z,1007.58
2022-09-26T11:03:39.101Z,1007.51
2022-09-26T11:04:39.061Z,1007.50
2022-09-26T11:05:39.068Z,1007.52
2022-09-26T11:06:39.089Z,1007.54
2022-09-26T11:07:39.006Z,1007.53
2022-09-26T11:08:39.042Z,1007.52
2022-09-26T11:09:39.011Z,1007.53
2022-09-26T11:10:39.001Z,1007.50
2022-09-26T11:11:38.993Z,1007.37
2022-09-26T11:12:38.954Z,1007.44
2022-09-26T11:13:38.981Z,1007.39
2022-09-26T11:14:38.993Z,1007.42
2022-09-26T11:15:38.945Z,1007.40
2022-09-26T11:16:38.950Z,1007.32
2022-09-26T11:17:38.874Z,1007.30
2022-09-26T11:18:38.890Z,1007.40
2022-09-26T11:19:38.876Z,1007.34
2022-09-26T11:20:38.910Z,1007.34
2022-09-26T11:21:38.819Z,1007.31
2022-09-26T11:22:38.863Z,1007.36
2022-09-26T11:23:38.814Z,1007.24
2022-09-26T11:24:38.794Z,1007.37
2022-09-26T11:25:38.779Z,1007.32
2022-09-26T11:26:38.853Z,1007.33
2022-09-26T11:27:38.749Z,1007.29
2022-09-26T11:28:38.775Z,1007.28
2022-09-26T11:29:38.733Z,1007.24
2022-09-26T11:30:38.712Z,1007.18
2022-09-26T11:31:38.774Z,1007.19
2022-09-26T11:32:38.732Z,1007.15
2022-09-26T11:33:38.688Z,1007.13
2022-09-26T11:34:38.672Z,1007.09
2022-09-26T11:35:38.635Z,1007.10
2022-09-26T11:36:38.656Z,1007.13
2022-09-26T11:37:38.690Z,1007.11
2022-09-26T11:38:38.784Z,1007.04
2022-09-26T11:39:38.603Z,1007.05
2022-09-26T11:40:38.607Z,1007.07
2022-09-26T11:41:38.600Z,1007.06
2022-09-26T11:42:38.548Z,1007.06
2022-09-26T11:43:38.527Z,1007.01
2022-09-26T11:44:38.582Z,1006.97
2022-09-26T11:45:41.845Z,1006.97
2022-09-26T11:46:38.677Z,1006.99
2022-09-26T11:47:38.592Z,1006.97
2022-09-26T11:48:38.563Z,1006.93
2022-09-26T11:49:38.482Z,1006.95
2022-09-26T11:50:38.486Z,1006.93
2022-09-26T11:51:38.432Z,1007.05
2022-09-26T11:52:38.426Z,1006.97
2022-09-26T11:53:38.425Z,1006.95
2022-09-26T11:54:38.396Z,1006.93
2022-09-26T11:55:38.395Z,1006.93
2022-09-26T11:56:38.517Z,1006.91
2022-09-26T11:57:38.385Z,1006.89
2022-09-26T11:58:38.358Z,1006.87
2022-09-26T11:59:38.318Z,1006.94
2022-09-26T12:00:38.313Z,1006.80
2022-09-26T12:01:38.326Z,1006.83
2022-09-26T12:02:38.469Z,1006.84
2022-09-26T12:03:38.432Z,1006.74
2022-09-26T12:04:38.293Z,1006.76
2022-09-26T12:05:38.264Z,1006.74
2022-09-26T12:06:38.226Z,1006.64
2022-09-26T12:07:38.241Z,1006.62
2022-09-26T12:08:38.242Z,1006.63